Time,TemperatureF,DewpointF,PressureIn,WindDirection,WindDirectionDegrees,WindSpeedMPH,WindSpeedGustMPH,Humidity,HourlyPrecipIn,Conditions,Clouds,dailyrainin,SolarRadiationWatts/m^2,SoftwareType,DateUTC
2013-06-03 00:02:00,52.0,42.0,-100.00,SE,124,9.0,16.0,69,0.00,,,0.00,0.000000,,2013-06-03 06:02:00,
2013-06-03 00:12:00,52.0,42.0,-100.00,SE,124,9.0,16.0,69,0.00,,,0.00,0.000000,,2013-06-03 06:12:00,
2013-06-03 00:22:00,52.0,42.0,-100.00,SE,124,9.0,16.0,69,0.00,,,0.00,0.000000,,2013-06-03 06:22:00,
2013-06-03 00:32:00,52.0,42.0,-100.00,SE,124,9.0,16.0,69,0.00,,,0.00,0.000000,,2013-06-03 06:32:00,
2013-06-03 00:52:00,51.0,41.0,-100.00,SE,130,10.0,22.0,68,0.00,,,0.00,0.000000,,2013-06-03 06:52:00,
2013-06-03 01:02:00,51.0,41.0,-100.00,SE,130,10.0,22.0,68,0.00,,,0.00,0.000000,,2013-06-03 07:02:00,
2013-06-03 01:12:00,51.0,41.0,-100.00,SE,130,10.0,22.0,68,0.00,,,0.00,0.000000,,2013-06-03 07:12:00,
2013-06-03 01:22:00,51.0,41.0,-100.00,SE,130,10.0,22.0,68,0.00,,,0.00,0.000000,,2013-06-03 07:22:00,
2013-06-03 01:32:00,51.0,41.0,-100.00,SE,130,10.0,22.0,68,0.00,,,0.00,0.000000,,2013-06-03 07:32:00,
2013-06-03 02:02:00,52.0,40.0,-100.00,SE,133,11.0,22.0,64,0.00,,,0.00,0.000000,,2013-06-03 08:02:00,
2013-06-03 02:12:00,52.0,40.0,-100.00,SE,133,11.0,22.0,64,0.00,,,0.00,0.000000,,2013-06-03 08:12:00,
2013-06-03 02:22:00,52.0,40.0,-100.00,SE,133,11.0,22.0,64,0.00,,,0.00,0.000000,,2013-06-03 08:22:00,
2013-06-03 02:32:00,52.0,40.0,-100.00,SE,133,11.0,22.0,64,0.00,,,0.00,0.000000,,2013-06-03 08:32:00,
2013-06-03 02:52:00,50.0,40.0,-100.00,SE,146,7.0,17.0,68,0.00,,,0.00,0.000000,,2013-06-03 08:52:00,
2013-06-03 03:02:00,50.0,40.0,-100.00,SE,146,7.0,17.0,68,0.00,,,0.00,0.000000,,2013-06-03 09:02:00,
2013-06-03 03:12:00,50.0,40.0,-100.00,SE,146,7.0,17.0,68,0.00,,,0.00,0.000000,,2013-06-03 09:12:00,
2013-06-03 03:22:00,50.0,40.0,-100.00,SE,146,7.0,17.0,68,0.00,,,0.00,0.000000,,2013-06-03 09:22:00,
2013-06-03 03:33:00,50.0,40.0,-100.00,SE,146,7.0,17.0,68,0.00,,,0.00,0.000000,,2013-06-03 09:33:00,
2013-06-03 03:53:00,50.0,39.0,-100.00,SSE,165,4.0,14.0,66,0.00,,,0.00,0.000000,,2013-06-03 09:53:00,
2013-06-03 04:03:00,50.0,39.0,-100.00,SSE,165,4.0,14.0,66,0.00,,,0.00,0.000000,,2013-06-03 10:03:00,
2013-06-03 04:12:00,50.0,39.0,-100.00,SSE,165,4.0,14.0,66,0.00,,,0.00,0.000000,,2013-06-03 10:12:00,
2013-06-03 04:22:00,50.0,39.0,-100.00,SSE,165,4.0,14.0,66,0.00,,,0.00,0.000000,,2013-06-03 10:22:00,
2013-06-03 04:33:00,50.0,39.0,-100.00,SSE,165,4.0,14.0,66,0.00,,,0.00,0.000000,,2013-06-03 10:33:00,
2013-06-03 04:52:00,48.0,37.0,-100.00,South,173,3.0,12.0,66,0.00,,,0.00,0.000000,,2013-06-03 10:52:00,
2013-06-03 05:02:00,48.0,37.0,-100.00,South,173,3.0,12.0,66,0.00,,,0.00,0.000000,,2013-06-03 11:02:00,
2013-06-03 05:12:00,48.0,37.0,-100.00,South,173,3.0,12.0,66,0.00,,,0.00,0.000000,,2013-06-03 11:12:00,
2013-06-03 05:22:00,48.0,37.0,-100.00,South,173,3.0,12.0,66,0.00,,,0.00,0.000000,,2013-06-03 11:22:00,
2013-06-03 05:32:00,48.0,37.0,-100.00,South,173,3.0,12.0,66,0.00,,,0.00,0.000000,,2013-06-03 11:32:00,
2013-06-03 06:02:00,49.0,36.0,-100.00,SSE,151,2.0,8.0,60,0.00,,,0.00,2.000000,,2013-06-03 12:02:00,
2013-06-03 06:12:00,49.0,36.0,-100.00,SSE,151,2.0,8.0,60,0.00,,,0.00,2.000000,,2013-06-03 12:12:00,
2013-06-03 06:22:00,49.0,36.0,-100.00,SSE,151,2.0,8.0,60,0.00,,,0.00,2.000000,,2013-06-03 12:22:00,
2013-06-03 06:32:00,49.0,36.0,-100.00,SSE,151,2.0,8.0,60,0.00,,,0.00,2.000000,,2013-06-03 12:32:00,
2013-06-03 06:52:00,51.0,38.0,-100.00,SSE,166,1.0,5.0,60,0.00,,,0.00,49.000000,,2013-06-03 12:52:00,
2013-06-03 07:02:00,51.0,38.0,-100.00,SSE,166,1.0,5.0,60,0.00,,,0.00,49.000000,,2013-06-03 13:02:00,
2013-06-03 07:12:00,51.0,38.0,-100.00,SSE,166,1.0,5.0,60,0.00,,,0.00,49.000000,,2013-06-03 13:12:00,
2013-06-03 07:22:00,51.0,38.0,-100.00,SSE,166,1.0,5.0,60,0.00,,,0.00,49.000000,,2013-06-03 13:22:00,
2013-06-03 07:32:00,51.0,38.0,-100.00,SSE,166,1.0,5.0,60,0.00,,,0.00,49.000000,,2013-06-03 13:32:00,
2013-06-03 07:53:00,58.0,38.0,-100.00,SW,228,6.0,10.0,47,0.00,,,0.00,83.000000,,2013-06-03 13:53:00,
2013-06-03 08:02:00,58.0,38.0,-100.00,SW,228,6.0,10.0,47,0.00,,,0.00,83.000000,,2013-06-03 14:02:00,
2013-06-03 08:12:00,58.0,38.0,-100.00,SW,228,6.0,10.0,47,0.00,,,0.00,83.000000,,2013-06-03 14:12:00,
2013-06-03 08:22:00,58.0,38.0,-100.00,SW,228,6.0,10.0,47,0.00,,,0.00,83.000000,,2013-06-03 14:22:00,
2013-06-03 08:32:00,58.0,38.0,-100.00,SW,228,6.0,10.0,47,0.00,,,0.00,83.000000,,2013-06-03 14:32:00,
2013-06-03 09:02:00,59.0,40.0,-100.00,WSW,246,3.0,12.0,49,0.00,,,0.00,180.000000,,2013-06-03 15:02:00,
2013-06-03 09:12:00,59.0,40.0,-100.00,WSW,246,3.0,12.0,49,0.00,,,0.00,180.000000,,2013-06-03 15:12:00,
2013-06-03 09:22:00,59.0,40.0,-100.00,WSW,246,3.0,12.0,49,0.00,,,0.00,180.000000,,2013-06-03 15:22:00,
2013-06-03 09:33:00,59.0,40.0,-100.00,WSW,246,3.0,12.0,49,0.00,,,0.00,180.000000,,2013-06-03 15:33:00,
2013-06-03 09:53:00,61.0,43.0,-100.00,WNW,284,5.0,13.0,51,0.00,,,0.00,637.000000,,2013-06-03 15:53:00,
2013-06-03 10:03:00,61.0,43.0,-100.00,WNW,284,5.0,13.0,51,0.00,,,0.00,637.000000,,2013-06-03 16:03:00,
2013-06-03 10:13:00,61.0,43.0,-100.00,WNW,284,5.0,13.0,51,0.00,,,0.00,637.000000,,2013-06-03 16:13:00,
2013-06-03 10:23:00,61.0,43.0,-100.00,WNW,284,5.0,13.0,51,0.00,,,0.00,637.000000,,2013-06-03 16:23:00,
2013-06-03 10:33:00,61.0,43.0,-100.00,WNW,284,5.0,13.0,51,0.00,,,0.00,637.000000,,2013-06-03 16:33:00,
2013-06-03 11:02:00,60.0,45.0,-100.00,WNW,301,7.0,13.0,57,0.00,,,0.00,837.000000,,2013-06-03 17:02:00,
2013-06-03 11:12:00,60.0,45.0,-100.00,WNW,301,7.0,13.0,57,0.00,,,0.00,837.000000,,2013-06-03 17:12:00,
2013-06-03 11:22:00,60.0,45.0,-100.00,WNW,301,7.0,13.0,57,0.00,,,0.00,837.000000,,2013-06-03 17:22:00,
2013-06-03 11:33:00,60.0,45.0,-100.00,WNW,301,7.0,13.0,57,0.00,,,0.00,837.000000,,2013-06-03 17:33:00,
2013-06-03 11:52:00,61.0,40.0,-100.00,WNW,286,7.0,16.0,46,0.00,,,0.00,972.000000,,2013-06-03 17:52:00,
2013-06-03 12:02:00,61.0,40.0,-100.00,WNW,286,7.0,16.0,46,0.00,,,0.00,972.000000,,2013-06-03 18:02:00,
2013-06-03 12:12:00,61.0,40.0,-100.00,WNW,286,7.0,16.0,46,0.00,,,0.00,972.000000,,2013-06-03 18:12:00,
2013-06-03 12:22:00,61.0,40.0,-100.00,WNW,286,7.0,16.0,46,0.00,,,0.00,972.000000,,2013-06-03 18:22:00,
2013-06-03 12:32:00,61.0,40.0,-100.00,WNW,286,7.0,16.0,46,0.00,,,0.00,972.000000,,2013-06-03 18:32:00,
2013-06-03 13:03:00,61.0,41.0,-100.00,WSW,256,6.0,15.0,47,0.00,,,0.00,858.000000,,2013-06-03 19:03:00,
2013-06-03 13:12:00,61.0,41.0,-100.00,WSW,256,6.0,15.0,47,0.00,,,0.00,858.000000,,2013-06-03 19:12:00,
2013-06-03 13:22:00,61.0,41.0,-100.00,WSW,256,6.0,15.0,47,0.00,,,0.00,858.000000,,2013-06-03 19:22:00,
2013-06-03 13:32:00,61.0,41.0,-100.00,WSW,256,6.0,15.0,47,0.00,,,0.00,858.000000,,2013-06-03 19:32:00,
2013-06-03 13:53:00,62.0,37.0,-100.00,WSW,249,7.0,17.0,39,0.00,,,0.00,1000.000000,,2013-06-03 19:53:00,
2013-06-03 14:02:00,62.0,37.0,-100.00,WSW,249,7.0,17.0,39,0.00,,,0.00,1000.000000,,2013-06-03 20:02:00,
2013-06-03 14:12:00,62.0,37.0,-100.00,WSW,249,7.0,17.0,39,0.00,,,0.00,1000.000000,,2013-06-03 20:12:00,
2013-06-03 14:22:00,62.0,37.0,-100.00,WSW,249,7.0,17.0,39,0.00,,,0.00,1000.000000,,2013-06-03 20:22:00,
2013-06-03 14:32:00,62.0,37.0,-100.00,WSW,249,7.0,17.0,39,0.00,,,0.00,1000.000000,,2013-06-03 20:32:00,
2013-06-03 14:52:00,62.0,37.0,-100.00,WSW,240,6.0,15.0,40,0.00,,,0.00,999.000000,,2013-06-03 20:52:00,
2013-06-03 15:02:00,62.0,37.0,-100.00,WSW,240,6.0,15.0,40,0.00,,,0.00,999.000000,,2013-06-03 21:02:00,
2013-06-03 15:12:00,62.0,37.0,-100.00,WSW,240,6.0,15.0,40,0.00,,,0.00,999.000000,,2013-06-03 21:12:00,
2013-06-03 15:22:00,62.0,37.0,-100.00,WSW,240,6.0,15.0,40,0.00,,,0.00,999.000000,,2013-06-03 21:22:00,
2013-06-03 15:33:00,62.0,37.0,-100.00,WSW,240,6.0,15.0,40,0.00,,,0.00,999.000000,,2013-06-03 21:33:00,
2013-06-03 15:53:00,60.0,37.0,-100.00,West,265,6.0,19.0,42,0.00,,,0.00,773.000000,,2013-06-03 21:53:00,
2013-06-03 16:03:00,60.0,37.0,-100.00,West,265,6.0,19.0,42,0.00,,,0.00,773.000000,,2013-06-03 22:03:00,
2013-06-03 16:12:00,60.0,37.0,-100.00,West,265,6.0,19.0,42,0.00,,,0.00,773.000000,,2013-06-03 22:12:00,
2013-06-03 16:22:00,60.0,37.0,-100.00,West,265,6.0,19.0,42,0.00,,,0.00,773.000000,,2013-06-03 22:22:00,
2013-06-03 16:32:00,60.0,37.0,-100.00,West,265,6.0,19.0,42,0.00,,,0.00,773.000000,,2013-06-03 22:32:00,
2013-06-03 16:53:00,59.0,33.0,-100.00,WNW,291,7.0,22.0,38,0.00,,,0.00,240.000000,,2013-06-03 22:53:00,
2013-06-03 17:02:00,59.0,33.0,-100.00,WNW,291,7.0,22.0,38,0.00,,,0.00,240.000000,,2013-06-03 23:02:00,
2013-06-03 17:12:00,59.0,33.0,-100.00,WNW,291,7.0,22.0,38,0.00,,,0.00,240.000000,,2013-06-03 23:12:00,
2013-06-03 17:22:00,59.0,33.0,-100.00,WNW,291,7.0,22.0,38,0.00,,,0.00,240.000000,,2013-06-03 23:22:00,
2013-06-03 17:32:00,59.0,33.0,-100.00,WNW,291,7.0,22.0,38,0.00,,,0.00,240.000000,,2013-06-03 23:32:00,
2013-06-03 18:02:00,59.0,32.0,-100.00,West,267,5.0,16.0,36,0.00,,,0.00,328.000000,,2013-06-04 00:02:00,
2013-06-03 18:12:00,59.0,32.0,-100.00,West,267,5.0,16.0,36,0.00,,,0.00,328.000000,,2013-06-04 00:12:00,
2013-06-03 18:22:00,59.0,32.0,-100.00,West,267,5.0,16.0,36,0.00,,,0.00,328.000000,,2013-06-04 00:22:00,
2013-06-03 18:32:00,59.0,32.0,-100.00,West,267,5.0,16.0,36,0.00,,,0.00,328.000000,,2013-06-04 00:32:00,
2013-06-03 18:52:00,60.0,31.0,-100.00,WNW,284,5.0,12.0,33,0.00,,,0.00,179.000000,,2013-06-04 00:52:00,
2013-06-03 19:02:00,60.0,31.0,-100.00,WNW,284,5.0,12.0,33,0.00,,,0.00,179.000000,,2013-06-04 01:02:00,
2013-06-03 19:12:00,60.0,31.0,-100.00,WNW,284,5.0,12.0,33,0.00,,,0.00,179.000000,,2013-06-04 01:12:00,
2013-06-03 19:22:00,60.0,31.0,-100.00,WNW,284,5.0,12.0,33,0.00,,,0.00,179.000000,,2013-06-04 01:22:00,
2013-06-03 19:32:00,60.0,31.0,-100.00,WNW,284,5.0,12.0,33,0.00,,,0.00,179.000000,,2013-06-04 01:32:00,
2013-06-03 19:53:00,57.0,31.0,-100.00,SW,223,1.0,12.0,37,0.00,,,0.00,108.000000,,2013-06-04 01:53:00,
2013-06-03 20:02:00,57.0,31.0,-100.00,SW,223,1.0,12.0,37,0.00,,,0.00,108.000000,,2013-06-04 02:02:00,
2013-06-03 20:12:00,57.0,31.0,-100.00,SW,223,1.0,12.0,37,0.00,,,0.00,108.000000,,2013-06-04 02:12:00,
2013-06-03 20:22:00,57.0,31.0,-100.00,SW,223,1.0,12.0,37,0.00,,,0.00,108.000000,,2013-06-04 02:22:00,
2013-06-03 20:32:00,57.0,31.0,-100.00,SW,223,1.0,12.0,37,0.00,,,0.00,108.000000,,2013-06-04 02:32:00,
2013-06-03 20:52:00,53.0,29.0,-100.00,NW,306,0.0,6.0,40,0.00,,,0.00,27.000000,,2013-06-04 02:52:00,
2013-06-03 21:02:00,53.0,29.0,-100.00,NW,306,0.0,6.0,40,0.00,,,0.00,27.000000,,2013-06-04 03:02:00,
2013-06-03 21:12:00,53.0,29.0,-100.00,NW,306,0.0,6.0,40,0.00,,,0.00,27.000000,,2013-06-04 03:12:00,
2013-06-03 21:22:00,53.0,29.0,-100.00,NW,306,0.0,6.0,40,0.00,,,0.00,27.000000,,2013-06-04 03:22:00,
2013-06-03 21:32:00,53.0,29.0,-100.00,NW,306,0.0,6.0,40,0.00,,,0.00,27.000000,,2013-06-04 03:32:00,
2013-06-03 21:54:00,48.0,36.0,-100.00,North,1,1.0,7.0,62,0.00,,,0.00,1.000000,,2013-06-04 03:54:00,
2013-06-03 22:03:00,48.0,36.0,-100.00,North,1,1.0,7.0,62,0.00,,,0.00,1.000000,,2013-06-04 04:03:00,
2013-06-03 22:13:00,48.0,36.0,-100.00,North,1,1.0,7.0,62,0.00,,,0.00,1.000000,,2013-06-04 04:13:00,
2013-06-03 22:23:00,48.0,36.0,-100.00,North,1,1.0,7.0,62,0.00,,,0.00,1.000000,,2013-06-04 04:23:00,
2013-06-03 22:33:00,48.0,36.0,-100.00,North,1,1.0,7.0,62,0.00,,,0.00,1.000000,,2013-06-04 04:33:00,
2013-06-03 22:53:00,-999.0,-99.9,-100.00,NNW,333,3.0,-999.0,-999,0.00,,,-99.99,,,2013-06-04 04:53:00,
2013-06-03 23:03:00,-999.0,-99.9,-100.00,NNW,333,3.0,-999.0,-999,0.00,,,-99.99,,,2013-06-04 05:03:00,
2013-06-03 23:12:00,-999.0,-99.9,-100.00,NNW,333,3.0,-999.0,-999,0.00,,,-99.99,,,2013-06-04 05:12:00,
2013-06-03 23:22:00,-999.0,-99.9,-100.00,NNW,333,3.0,-999.0,-999,0.00,,,-99.99,,,2013-06-04 05:22:00,
2013-06-03 23:32:00,-999.0,-99.9,-100.00,NNW,333,3.0,-999.0,-999,0.00,,,-99.99,,,2013-06-04 05:32:00,
2013-06-03 23:52:00,42.0,32.0,-100.00,WNW,297,6.0,14.0,67,0.00,,,0.00,0.000000,,2013-06-04 05:52:00,